sensor_id;sensor_type;location;lat;lon;timestamp;pressure;altitude;pressure_sealevel;temperature;humidity
8705;BME280;4389;41.932;25.904;2023-07-29T00:01:10;-16555.50;;;18.31;78.30
8705;BME280;4389;41.932;25.904;2023-07-29T00:03:38;-16554.19;;;18.26;78.51
8705;BME280;4389;41.932;25.904;2023-07-29T00:06:05;-16551.81;;;18.17;79.36
8705;BME280;4389;41.932;25.904;2023-07-29T00:08:32;-16548.88;;;18.06;80.09
8705;BME280;4389;41.932;25.904;2023-07-29T00:10:59;-16548.63;;;18.05;79.81
8705;BME280;4389;41.932;25.904;2023-07-29T00:13:25;-16546.91;;;17.98;80.17
8705;BME280;4389;41.932;25.904;2023-07-29T00:15:53;-16540.16;;;17.73;81.33
8705;BME280;4389;41.932;25.904;2023-07-29T00:18:20;-16538.56;;;17.67;81.77
8705;BME280;4389;41.932;25.904;2023-07-29T00:20:48;-16535.63;;;17.56;82.94
8705;BME280;4389;41.932;25.904;2023-07-29T00:23:17;-16535.09;;;17.54;82.86
8705;BME280;4389;41.932;25.904;2023-07-29T00:25:44;-16536.97;;;17.61;82.81
8705;BME280;4389;41.932;25.904;2023-07-29T00:28:11;-16536.97;;;17.61;82.59
8705;BME280;4389;41.932;25.904;2023-07-29T00:30:38;-16535.09;;;17.54;82.67
8705;BME280;4389;41.932;25.904;2023-07-29T00:33:05;-16533.13;;;17.46;83.61
8705;BME280;4389;41.932;25.904;2023-07-29T00:35:32;-16531.94;;;17.42;84.01
8705;BME280;4389;41.932;25.904;2023-07-29T00:38:00;-16532.47;;;17.44;83.86
8705;BME280;4389;41.932;25.904;2023-07-29T00:40:28;-16530.72;;;17.37;84.08
8705;BME280;4389;41.932;25.904;2023-07-29T00:42:55;-16532.47;;;17.44;83.87
8705;BME280;4389;41.932;25.904;2023-07-29T00:45:23;-16531.94;;;17.42;83.81
8705;BME280;4389;41.932;25.904;2023-07-29T00:47:51;-16524.75;;;17.15;85.07
8705;BME280;4389;41.932;25.904;2023-07-29T00:50:18;-16518.53;;;16.91;86.13
8705;BME280;4389;41.932;25.904;2023-07-29T00:52:45;-16520.00;;;16.97;86.41
8705;BME280;4389;41.932;25.904;2023-07-29T00:55:13;-16522.91;;;17.08;86.35
8705;BME280;4389;41.932;25.904;2023-07-29T00:57:41;-16521.59;;;17.03;86.59
8705;BME280;4389;41.932;25.904;2023-07-29T01:00:13;-16522.13;;;17.05;86.51
8705;BME280;4389;41.932;25.904;2023-07-29T01:02:41;-16523.56;;;17.10;86.16
8705;BME280;4389;41.932;25.904;2023-07-29T01:05:10;-16522.50;;;17.06;86.17
8705;BME280;4389;41.932;25.904;2023-07-29T01:07:44;-16520.94;;;17.00;86.69
8705;BME280;4389;41.932;25.904;2023-07-29T01:10:24;-16520.53;;;16.99;86.90
8705;BME280;4389;41.932;25.904;2023-07-29T01:13:01;-16520.41;;;16.98;86.97
8705;BME280;4389;41.932;25.904;2023-07-29T01:15:35;-16519.47;;;16.95;87.49
8705;BME280;4389;41.932;25.904;2023-07-29T01:18:05;-16517.88;;;16.89;87.05
8705;BME280;4389;41.932;25.904;2023-07-29T01:20:34;-16518.13;;;16.90;87.17
8705;BME280;4389;41.932;25.904;2023-07-29T01:23:03;-16515.75;;;16.81;87.25
8705;BME280;4389;41.932;25.904;2023-07-29T01:25:31;-16520.25;;;16.98;87.20
8705;BME280;4389;41.932;25.904;2023-07-29T01:27:58;-16520.00;;;16.97;86.73
8705;BME280;4389;41.932;25.904;2023-07-29T01:30:29;-16516.81;;;16.85;87.34
8705;BME280;4389;41.932;25.904;2023-07-29T01:33:00;-16517.34;;;16.87;87.13
8705;BME280;4389;41.932;25.904;2023-07-29T01:35:35;-16517.34;;;16.87;87.07
8705;BME280;4389;41.932;25.904;2023-07-29T01:38:05;-16516.81;;;16.85;87.51
8705;BME280;4389;41.932;25.904;2023-07-29T01:40:35;-16517.75;;;16.88;87.48
8705;BME280;4389;41.932;25.904;2023-07-29T01:43:02;-16518.13;;;16.90;87.85
8705;BME280;4389;41.932;25.904;2023-07-29T01:45:29;-16516.28;;;16.83;87.62
8705;BME280;4389;41.932;25.904;2023-07-29T01:48:00;-16511.78;;;16.66;87.88
8705;BME280;4389;41.932;25.904;2023-07-29T01:50:27;-16512.84;;;16.70;88.42
8705;BME280;4389;41.932;25.904;2023-07-29T01:52:54;-16508.72;;;16.54;88.55
8705;BME280;4389;41.932;25.904;2023-07-29T01:55:21;-16509.66;;;16.58;88.81
8705;BME280;4389;41.932;25.904;2023-07-29T01:57:50;-16509.38;;;16.57;88.64
8705;BME280;4389;41.932;25.904;2023-07-29T02:00:18;-16508.34;;;16.53;88.36
8705;BME280;4389;41.932;25.904;2023-07-29T02:02:45;-16504.63;;;16.39;88.63
8705;BME280;4389;41.932;25.904;2023-07-29T02:05:12;-16502.34;;;16.30;89.03
8705;BME280;4389;41.932;25.904;2023-07-29T02:07:39;-16501.03;;;16.25;90.22
8705;BME280;4389;41.932;25.904;2023-07-29T02:10:07;-16502.22;;;16.30;90.56
8705;BME280;4389;41.932;25.904;2023-07-29T02:12:34;-16502.22;;;16.30;89.99
8705;BME280;4389;41.932;25.904;2023-07-29T02:15:02;-16502.75;;;16.32;90.40
8705;BME280;4389;41.932;25.904;2023-07-29T02:17:30;-16503.28;;;16.34;90.58
8705;BME280;4389;41.932;25.904;2023-07-29T02:19:57;-16504.88;;;16.40;91.06
8705;BME280;4389;41.932;25.904;2023-07-29T02:22:23;-16503.94;;;16.36;90.59
8705;BME280;4389;41.932;25.904;2023-07-29T02:24:50;-16502.75;;;16.32;91.90
8705;BME280;4389;41.932;25.904;2023-07-29T02:27:17;-16502.50;;;16.31;91.73
8705;BME280;4389;41.932;25.904;2023-07-29T02:29:44;-16503.69;;;16.35;91.73
8705;BME280;4389;41.932;25.904;2023-07-29T02:32:12;-16503.28;;;16.34;91.09
8705;BME280;4389;41.932;25.904;2023-07-29T02:34:39;-16499.03;;;16.18;91.92
8705;BME280;4389;41.932;25.904;2023-07-29T02:37:05;-16504.09;;;16.37;92.00
8705;BME280;4389;41.932;25.904;2023-07-29T02:39:32;-16503.56;;;16.35;91.86
8705;BME280;4389;41.932;25.904;2023-07-29T02:41:59;-16505.16;;;16.41;92.26
8705;BME280;4389;41.932;25.904;2023-07-29T02:44:26;-16501.97;;;16.29;92.34
8705;BME280;4389;41.932;25.904;2023-07-29T02:46:53;-16499.44;;;16.19;92.78
8705;BME280;4389;41.932;25.904;2023-07-29T02:49:22;-16500.63;;;16.24;92.48
8705;BME280;4389;41.932;25.904;2023-07-29T02:51:49;-16501.44;;;16.27;92.56
8705;BME280;4389;41.932;25.904;2023-07-29T02:54:16;-16501.16;;;16.26;91.73
8705;BME280;4389;41.932;25.904;2023-07-29T02:56:43;-16500.09;;;16.22;91.95
8705;BME280;4389;41.932;25.904;2023-07-29T02:59:09;-16496.66;;;16.09;91.98
8705;BME280;4389;41.932;25.904;2023-07-29T03:01:36;-16495.59;;;16.05;91.98
8705;BME280;4389;41.932;25.904;2023-07-29T03:04:03;-16498.38;;;16.15;91.80
8705;BME280;4389;41.932;25.904;2023-07-29T03:06:31;-16494.66;;;16.01;91.66
8705;BME280;4389;41.932;25.904;2023-07-29T03:08:58;-16491.63;;;15.90;91.61
8705;BME280;4389;41.932;25.904;2023-07-29T03:11:25;-16489.22;;;15.81;92.31
8705;BME280;4389;41.932;25.904;2023-07-29T03:13:52;-16487.63;;;15.75;93.17
8705;BME280;4389;41.932;25.904;2023-07-29T03:16:19;-16482.34;;;15.55;93.60
8705;BME280;4389;41.932;25.904;2023-07-29T03:18:46;-16481.53;;;15.52;94.44
8705;BME280;4389;41.932;25.904;2023-07-29T03:21:13;-16480.22;;;15.47;94.29
8705;BME280;4389;41.932;25.904;2023-07-29T03:23:41;-16485.38;;;15.66;94.46
8705;BME280;4389;41.932;25.904;2023-07-29T03:26:08;-16503.56;;;16.35;92.09
8705;BME280;4389;41.932;25.904;2023-07-29T03:28:37;-16522.66;;;17.07;88.64
8705;BME280;4389;41.932;25.904;2023-07-29T03:31:04;-16542.41;;;17.81;84.73
8705;BME280;4389;41.932;25.904;2023-07-29T03:33:31;-16566.63;;;18.73;80.60
8705;BME280;4389;41.932;25.904;2023-07-29T03:35:58;-16583.31;;;19.35;77.99
8705;BME280;4389;41.932;25.904;2023-07-29T03:38:25;-16597.75;;;19.90;74.96
8705;BME280;4389;41.932;25.904;2023-07-29T03:40:54;-16606.34;;;20.22;73.51
8705;BME280;4389;41.932;25.904;2023-07-29T03:43:21;-16614.03;;;20.51;71.89
8705;BME280;4389;41.932;25.904;2023-07-29T03:45:48;-16635.03;;;21.31;68.87
8705;BME280;4389;41.932;25.904;2023-07-29T03:48:14;-16647.47;;;21.78;66.31
8705;BME280;4389;41.932;25.904;2023-07-29T03:50:41;-16644.44;;;21.66;65.37
8705;BME280;4389;41.932;25.904;2023-07-29T03:53:08;-16637.56;;;21.40;66.11
8705;BME280;4389;41.932;25.904;2023-07-29T03:55:35;-16639.81;;;21.49;65.95
8705;BME280;4389;41.932;25.904;2023-07-29T03:58:03;-16652.09;;;21.95;64.25
8705;BME280;4389;41.932;25.904;2023-07-29T04:00:30;-16664.78;;;22.43;61.44
8705;BME280;4389;41.932;25.904;2023-07-29T04:02:57;-16666.91;;;22.51;60.79
8705;BME280;4389;41.932;25.904;2023-07-29T04:05:24;-16678.53;;;22.95;59.49
8705;BME280;4389;41.932;25.904;2023-07-29T04:07:51;-16691.47;;;23.44;57.52
8705;BME280;4389;41.932;25.904;2023-07-29T04:10:19;-16716.00;;;24.37;54.36
8705;BME280;4389;41.932;25.904;2023-07-29T04:12:46;-16720.09;;;24.52;53.70
8705;BME280;4389;41.932;25.904;2023-07-29T04:15:14;-16710.88;;;24.18;54.51
8705;BME280;4389;41.932;25.904;2023-07-29T04:17:41;-16718.38;;;24.46;53.57
8705;BME280;4389;41.932;25.904;2023-07-29T04:20:09;-16730.53;;;24.92;51.98
8705;BME280;4389;41.932;25.904;2023-07-29T04:22:37;-16748.72;;;25.61;49.87
8705;BME280;4389;41.932;25.904;2023-07-29T04:25:05;-16765.59;;;26.25;48.27
8705;BME280;4389;41.932;25.904;2023-07-29T04:27:32;-16776.28;;;26.65;46.93
8705;BME280;4389;41.932;25.904;2023-07-29T04:29:59;-16795.38;;;27.38;45.66
8705;BME280;4389;41.932;25.904;2023-07-29T04:32:27;-16808.25;;;27.87;44.48
8705;BME280;4389;41.932;25.904;2023-07-29T04:34:54;-16814.72;;;28.11;43.71
8705;BME280;4389;41.932;25.904;2023-07-29T04:37:20;-16818.00;;;28.24;42.56
8705;BME280;4389;41.932;25.904;2023-07-29T04:39:47;-16817.34;;;28.21;43.36
8705;BME280;4389;41.932;25.904;2023-07-29T04:42:14;-16810.91;;;27.97;44.02
8705;BME280;4389;41.932;25.904;2023-07-29T04:44:41;-16794.06;;;27.33;44.87
8705;BME280;4389;41.932;25.904;2023-07-29T04:47:09;-16778.63;;;26.74;46.35
8705;BME280;4389;41.932;25.904;2023-07-29T04:49:37;-16782.31;;;26.88;46.98
8705;BME280;4389;41.932;25.904;2023-07-29T04:52:05;-16791.69;;;27.24;45.91
8705;BME280;4389;41.932;25.904;2023-07-29T04:54:32;-16786.00;;;27.02;46.32
8705;BME280;4389;41.932;25.904;2023-07-29T04:56:59;-16809.19;;;27.90;44.11
8705;BME280;4389;41.932;25.904;2023-07-29T04:59:25;-16796.69;;;27.43;45.03
8705;BME280;4389;41.932;25.904;2023-07-29T05:01:52;-16759.00;;;26.00;49.10
8705;BME280;4389;41.932;25.904;2023-07-29T05:04:19;-16723.66;;;24.66;53.45
8705;BME280;4389;41.932;25.904;2023-07-29T05:06:47;-16690.53;;;23.41;58.68
8705;BME280;4389;41.932;25.904;2023-07-29T05:09:15;-16659.63;;;22.24;62.89
8705;BME280;4389;41.932;25.904;2023-07-29T05:11:42;-16641.53;;;21.55;65.79
8705;BME280;4389;41.932;25.904;2023-07-29T05:14:10;-16632.00;;;21.19;67.60
8705;BME280;4389;41.932;25.904;2023-07-29T05:16:37;-16628.84;;;21.07;68.56
8705;BME280;4389;41.932;25.904;2023-07-29T05:19:04;-16629.09;;;21.08;68.22
8705;BME280;4389;41.932;25.904;2023-07-29T05:21:31;-16628.84;;;21.07;69.01
8705;BME280;4389;41.932;25.904;2023-07-29T05:23:59;-16634.13;;;21.27;68.21
8705;BME280;4389;41.932;25.904;2023-07-29T05:26:26;-16643.09;;;21.61;66.95
8705;BME280;4389;41.932;25.904;2023-07-29T05:28:53;-16643.91;;;21.64;66.88
8705;BME280;4389;41.932;25.904;2023-07-29T05:31:21;-16649.72;;;21.86;66.24
8705;BME280;4389;41.932;25.904;2023-07-29T05:33:48;-16651.31;;;21.92;65.60
8705;BME280;4389;41.932;25.904;2023-07-29T05:36:15;-16648.94;;;21.83;66.81
8705;BME280;4389;41.932;25.904;2023-07-29T05:38:42;-16652.09;;;21.95;66.14
8705;BME280;4389;41.932;25.904;2023-07-29T05:41:10;-16654.47;;;22.04;66.46
8705;BME280;4389;41.932;25.904;2023-07-29T05:43:37;-16656.72;;;22.13;66.72
8705;BME280;4389;41.932;25.904;2023-07-29T05:46:04;-16660.81;;;22.28;65.88
8705;BME280;4389;41.932;25.904;2023-07-29T05:48:31;-16662.13;;;22.33;65.83
8705;BME280;4389;41.932;25.904;2023-07-29T05:50:58;-16660.81;;;22.28;66.20
8705;BME280;4389;41.932;25.904;2023-07-29T05:53:25;-16657.50;;;22.16;66.90
8705;BME280;4389;41.932;25.904;2023-07-29T05:55:52;-16660.28;;;22.26;66.57
8705;BME280;4389;41.932;25.904;2023-07-29T05:58:20;-16661.09;;;22.29;66.93
8705;BME280;4389;41.932;25.904;2023-07-29T06:00:47;-16666.63;;;22.50;66.14
8705;BME280;4389;41.932;25.904;2023-07-29T06:03:14;-16669.28;;;22.60;66.17
8705;BME280;4389;41.932;25.904;2023-07-29T06:05:41;-16675.09;;;22.82;64.60
8705;BME280;4389;41.932;25.904;2023-07-29T06:08:07;-16676.69;;;22.88;64.63
8705;BME280;4389;41.932;25.904;2023-07-29T06:10:34;-16683.81;;;23.15;63.43
8705;BME280;4389;41.932;25.904;2023-07-29T06:13:01;-16688.97;;;23.35;63.34
8705;BME280;4389;41.932;25.904;2023-07-29T06:15:29;-16690.28;;;23.40;62.56
8705;BME280;4389;41.932;25.904;2023-07-29T06:17:56;-16692.53;;;23.48;63.08
8705;BME280;4389;41.932;25.904;2023-07-29T06:20:23;-16693.06;;;23.50;63.04
8705;BME280;4389;41.932;25.904;2023-07-29T06:22:50;-16693.31;;;23.51;62.26
8705;BME280;4389;41.932;25.904;2023-07-29T06:25:17;-16696.09;;;23.62;61.82
8705;BME280;4389;41.932;25.904;2023-07-29T06:27:44;-16698.47;;;23.71;61.62
8705;BME280;4389;41.932;25.904;2023-07-29T06:30:11;-16699.53;;;23.75;61.85
8705;BME280;4389;41.932;25.904;2023-07-29T06:32:39;-16706.78;;;24.02;60.62
8705;BME280;4389;41.932;25.904;2023-07-29T06:35:06;-16708.75;;;24.10;59.57
8705;BME280;4389;41.932;25.904;2023-07-29T06:37:33;-16712.19;;;24.23;59.36
8705;BME280;4389;41.932;25.904;2023-07-29T06:40:00;-16713.63;;;24.28;59.38
8705;BME280;4389;41.932;25.904;2023-07-29T06:42:27;-16715.22;;;24.34;59.23
8705;BME280;4389;41.932;25.904;2023-07-29T06:44:54;-16719.72;;;24.51;59.34
8705;BME280;4389;41.932;25.904;2023-07-29T06:47:21;-16722.47;;;24.61;58.57
8705;BME280;4389;41.932;25.904;2023-07-29T06:49:49;-16726.03;;;24.75;58.28
8705;BME280;4389;41.932;25.904;2023-07-29T06:52:16;-16726.03;;;24.75;58.27
8705;BME280;4389;41.932;25.904;2023-07-29T06:54:43;-16727.50;;;24.80;57.43
8705;BME280;4389;41.932;25.904;2023-07-29T06:57:10;-16727.09;;;24.79;57.36
8705;BME280;4389;41.932;25.904;2023-07-29T06:59:37;-16724.47;;;24.69;56.05
8705;BME280;4389;41.932;25.904;2023-07-29T07:02:04;-16728.69;;;24.85;55.72
8705;BME280;4389;41.932;25.904;2023-07-29T07:04:31;-16733.16;;;25.02;55.63
8705;BME280;4389;41.932;25.904;2023-07-29T07:06:59;-16743.31;;;25.40;55.03
8705;BME280;4389;41.932;25.904;2023-07-29T07:09:26;-16750.84;;;25.69;53.52
8705;BME280;4389;41.932;25.904;2023-07-29T07:11:53;-16754.53;;;25.83;53.04
8705;BME280;4389;41.932;25.904;2023-07-29T07:14:19;-16753.22;;;25.78;53.56
8705;BME280;4389;41.932;25.904;2023-07-29T07:16:46;-16755.19;;;25.85;52.43
8705;BME280;4389;41.932;25.904;2023-07-29T07:19:13;-16761.78;;;26.10;51.60
8705;BME280;4389;41.932;25.904;2023-07-29T07:21:40;-16767.03;;;26.30;50.79
8705;BME280;4389;41.932;25.904;2023-07-29T07:24:08;-16771.00;;;26.45;50.53
8705;BME280;4389;41.932;25.904;2023-07-29T07:26:35;-16777.97;;;26.72;49.92
8705;BME280;4389;41.932;25.904;2023-07-29T07:29:01;-16780.22;;;26.80;49.04
8705;BME280;4389;41.932;25.904;2023-07-29T07:31:32;-16777.72;;;26.71;46.26
8705;BME280;4389;41.932;25.904;2023-07-29T07:33:59;-16779.44;;;26.77;46.36
8705;BME280;4389;41.932;25.904;2023-07-29T07:36:27;-16780.09;;;26.80;45.79
8705;BME280;4389;41.932;25.904;2023-07-29T07:38:54;-16783.25;;;26.92;46.29
8705;BME280;4389;41.932;25.904;2023-07-29T07:41:22;-16782.47;;;26.89;45.75
8705;BME280;4389;41.932;25.904;2023-07-29T07:43:49;-16779.03;;;26.76;44.90
8705;BME280;4389;41.932;25.904;2023-07-29T07:46:16;-16779.81;;;26.79;44.54
8705;BME280;4389;41.932;25.904;2023-07-29T07:48:43;-16784.16;;;26.95;42.65
8705;BME280;4389;41.932;25.904;2023-07-29T07:51:11;-16793.00;;;27.29;43.23
8705;BME280;4389;41.932;25.904;2023-07-29T07:53:38;-16802.59;;;27.65;43.15
8705;BME280;4389;41.932;25.904;2023-07-29T07:56:06;-16804.56;;;27.73;43.17
8705;BME280;4389;41.932;25.904;2023-07-29T07:58:34;-16810.75;;;27.96;43.31
8705;BME280;4389;41.932;25.904;2023-07-29T08:01:01;-16809.97;;;27.93;43.23
8705;BME280;4389;41.932;25.904;2023-07-29T08:03:28;-16805.38;;;27.76;43.34
8705;BME280;4389;41.932;25.904;2023-07-29T08:05:55;-16808.00;;;27.86;43.23
8705;BME280;4389;41.932;25.904;2023-07-29T08:08:22;-16809.31;;;27.91;42.40
8705;BME280;4389;41.932;25.904;2023-07-29T08:10:49;-16811.44;;;27.99;41.54
8705;BME280;4389;41.932;25.904;2023-07-29T08:13:16;-16817.47;;;28.22;42.00
8705;BME280;4389;41.932;25.904;2023-07-29T08:15:47;-16819.19;;;28.28;39.90
8705;BME280;4389;41.932;25.904;2023-07-29T08:18:14;-16815.63;;;28.15;39.98
8705;BME280;4389;41.932;25.904;2023-07-29T08:20:41;-16813.53;;;28.07;40.18
8705;BME280;4389;41.932;25.904;2023-07-29T08:23:08;-16818.13;;;28.24;39.74
8705;BME280;4389;41.932;25.904;2023-07-29T08:25:34;-16821.69;;;28.38;40.11
8705;BME280;4389;41.932;25.904;2023-07-29T08:28:01;-16826.41;;;28.56;39.65
8705;BME280;4389;41.932;25.904;2023-07-29T08:30:28;-16830.91;;;28.73;37.66
8705;BME280;4389;41.932;25.904;2023-07-29T08:32:56;-16831.69;;;28.76;37.36
8705;BME280;4389;41.932;25.904;2023-07-29T08:35:23;-16834.06;;;28.85;36.43
8705;BME280;4389;41.932;25.904;2023-07-29T08:37:50;-16836.03;;;28.92;37.10
8705;BME280;4389;41.932;25.904;2023-07-29T08:40:17;-16836.94;;;28.96;35.24
8705;BME280;4389;41.932;25.904;2023-07-29T08:42:45;-16834.97;;;28.88;36.25
8705;BME280;4389;41.932;25.904;2023-07-29T08:45:17;-16838.00;;;29.00;37.83
8705;BME280;4389;41.932;25.904;2023-07-29T08:47:44;-16835.50;;;28.90;36.12
8705;BME280;4389;41.932;25.904;2023-07-29T08:50:13;-16835.09;;;28.89;37.46
8705;BME280;4389;41.932;25.904;2023-07-29T08:52:40;-16837.22;;;28.97;36.88
8705;BME280;4389;41.932;25.904;2023-07-29T08:55:08;-16839.84;;;29.07;34.73
8705;BME280;4389;41.932;25.904;2023-07-29T08:57:35;-16842.72;;;29.18;33.77
8705;BME280;4389;41.932;25.904;2023-07-29T09:00:04;-16842.72;;;29.18;33.81
8705;BME280;4389;41.932;25.904;2023-07-29T09:02:31;-16850.88;;;29.49;34.33
8705;BME280;4389;41.932;25.904;2023-07-29T09:04:58;-16846.94;;;29.34;33.76
8705;BME280;4389;41.932;25.904;2023-07-29T09:07:27;-16845.63;;;29.29;33.96
8705;BME280;4389;41.932;25.904;2023-07-29T09:09:55;-16849.31;;;29.43;34.41
8705;BME280;4389;41.932;25.904;2023-07-29T09:12:22;-16856.66;;;29.71;32.89
8705;BME280;4389;41.932;25.904;2023-07-29T09:14:51;-16858.25;;;29.77;32.52
8705;BME280;4389;41.932;25.904;2023-07-29T09:17:19;-16860.75;;;29.86;32.64
8705;BME280;4389;41.932;25.904;2023-07-29T09:19:48;-16863.75;;;29.98;32.83
8705;BME280;4389;41.932;25.904;2023-07-29T09:22:18;-16862.97;;;29.95;31.49
8705;BME280;4389;41.932;25.904;2023-07-29T09:24:47;-16860.88;;;29.87;30.48
8705;BME280;4389;41.932;25.904;2023-07-29T09:27:23;-16859.28;;;29.81;30.06
8705;BME280;4389;41.932;25.904;2023-07-29T09:29:51;-16862.97;;;29.95;29.47
8705;BME280;4389;41.932;25.904;2023-07-29T09:32:18;-16861.66;;;29.90;29.76
8705;BME280;4389;41.932;25.904;2023-07-29T09:34:46;-16864.03;;;29.99;30.40
8705;BME280;4389;41.932;25.904;2023-07-29T09:37:17;-16859.81;;;29.83;30.93
8705;BME280;4389;41.932;25.904;2023-07-29T09:39:46;-16865.06;;;30.03;30.98
8705;BME280;4389;41.932;25.904;2023-07-29T09:42:17;-16863.75;;;29.98;30.30
8705;BME280;4389;41.932;25.904;2023-07-29T09:44:44;-16865.84;;;30.06;30.33
8705;BME280;4389;41.932;25.904;2023-07-29T09:47:19;-16875.84;;;30.43;30.10
8705;BME280;4389;41.932;25.904;2023-07-29T09:49:48;-16883.59;;;30.73;29.25
8705;BME280;4389;41.932;25.904;2023-07-29T09:52:16;-16881.38;;;30.64;29.62
8705;BME280;4389;41.932;25.904;2023-07-29T09:54:43;-16875.44;;;30.42;29.45
8705;BME280;4389;41.932;25.904;2023-07-29T09:57:13;-16877.69;;;30.50;29.62
8705;BME280;4389;41.932;25.904;2023-07-29T09:59:40;-16883.72;;;30.73;29.69
8705;BME280;4389;41.932;25.904;2023-07-29T10:02:10;-16881.75;;;30.66;29.56
8705;BME280;4389;41.932;25.904;2023-07-29T10:04:40;-16886.22;;;30.83;29.44
8705;BME280;4389;41.932;25.904;2023-07-29T10:07:09;-16891.88;;;31.04;29.80
8705;BME280;4389;41.932;25.904;2023-07-29T10:09:36;-16897.13;;;31.24;28.58
8705;BME280;4389;41.932;25.904;2023-07-29T10:12:06;-16896.59;;;31.22;28.52
8705;BME280;4389;41.932;25.904;2023-07-29T10:14:34;-16897.66;;;31.26;28.38
8705;BME280;4389;41.932;25.904;2023-07-29T10:17:02;-16895.81;;;31.19;28.82
8705;BME280;4389;41.932;25.904;2023-07-29T10:19:30;-16893.03;;;31.09;28.83
8705;BME280;4389;41.932;25.904;2023-07-29T10:21:59;-16895.81;;;31.19;28.37
8705;BME280;4389;41.932;25.904;2023-07-29T10:24:30;-16902.09;;;31.43;27.82
8705;BME280;4389;41.932;25.904;2023-07-29T10:26:58;-16901.84;;;31.42;27.86
8705;BME280;4389;41.932;25.904;2023-07-29T10:29:30;-16899.22;;;31.32;28.33
8705;BME280;4389;41.932;25.904;2023-07-29T10:32:01;-16892.91;;;31.08;28.06
8705;BME280;4389;41.932;25.904;2023-07-29T10:34:29;-16895.03;;;31.16;27.58
8705;BME280;4389;41.932;25.904;2023-07-29T10:36:57;-16903.16;;;31.47;27.55
8705;BME280;4389;41.932;25.904;2023-07-29T10:39:24;-16908.94;;;31.69;27.64
8705;BME280;4389;41.932;25.904;2023-07-29T10:41:54;-16906.31;;;31.59;27.40
8705;BME280;4389;41.932;25.904;2023-07-29T10:44:47;-16902.50;;;31.45;27.23
8705;BME280;4389;41.932;25.904;2023-07-29T10:47:17;-16904.72;;;31.53;27.03
8705;BME280;4389;41.932;25.904;2023-07-29T10:49:46;-16903.41;;;31.48;26.92
8705;BME280;4389;41.932;25.904;2023-07-29T10:52:13;-16905.50;;;31.56;27.16
8705;BME280;4389;41.932;25.904;2023-07-29T10:54:45;-16907.09;;;31.62;26.98
8705;BME280;4389;41.932;25.904;2023-07-29T10:57:16;-16912.09;;;31.81;27.60
8705;BME280;4389;41.932;25.904;2023-07-29T10:59:56;-16909.72;;;31.72;26.46
8705;BME280;4389;41.932;25.904;2023-07-29T11:02:30;-16909.97;;;31.73;26.52
8705;BME280;4389;41.932;25.904;2023-07-29T11:04:58;-16913.91;;;31.88;26.70
8705;BME280;4389;41.932;25.904;2023-07-29T11:07:26;-16919.03;;;32.08;26.84
8705;BME280;4389;41.932;25.904;2023-07-29T11:09:58;-16922.97;;;32.23;27.38
8705;BME280;4389;41.932;25.904;2023-07-29T11:12:38;-16925.19;;;32.31;26.35
8705;BME280;4389;41.932;25.904;2023-07-29T11:15:13;-16933.31;;;32.62;26.06
8705;BME280;4389;41.932;25.904;2023-07-29T11:17:42;-16931.88;;;32.57;26.19
8705;BME280;4389;41.932;25.904;2023-07-29T11:20:11;-16931.63;;;32.56;26.48
8705;BME280;4389;41.932;25.904;2023-07-29T11:22:38;-16929.13;;;32.46;25.77
8705;BME280;4389;41.932;25.904;2023-07-29T11:25:07;-16929.25;;;32.47;26.45
8705;BME280;4389;41.932;25.904;2023-07-29T11:27:34;-16931.75;;;32.56;26.48
8705;BME280;4389;41.932;25.904;2023-07-29T11:30:03;-16932.94;;;32.61;26.04
8705;BME280;4389;41.932;25.904;2023-07-29T11:32:32;-16930.19;;;32.50;27.33
8705;BME280;4389;41.932;25.904;2023-07-29T11:35:03;-16935.16;;;32.69;26.08
8705;BME280;4389;41.932;25.904;2023-07-29T11:37:30;-16933.19;;;32.62;25.84
8705;BME280;4389;41.932;25.904;2023-07-29T11:39:57;-16936.47;;;32.74;26.88
8705;BME280;4389;41.932;25.904;2023-07-29T11:42:26;-16937.41;;;32.78;25.73
8705;BME280;4389;41.932;25.904;2023-07-29T11:44:53;-16935.69;;;32.71;25.65
8705;BME280;4389;41.932;25.904;2023-07-29T11:47:20;-16941.72;;;32.94;26.38
8705;BME280;4389;41.932;25.904;2023-07-29T11:49:46;-16943.28;;;33.00;26.48
8705;BME280;4389;41.932;25.904;2023-07-29T11:52:15;-16940.53;;;32.90;26.43
8705;BME280;4389;41.932;25.904;2023-07-29T11:54:44;-16937.91;;;32.80;27.19
8705;BME280;4389;41.932;25.904;2023-07-29T11:57:12;-16935.69;;;32.71;26.40
8705;BME280;4389;41.932;25.904;2023-07-29T11:59:40;-16937.41;;;32.78;26.45
8705;BME280;4389;41.932;25.904;2023-07-29T12:02:10;-16941.72;;;32.94;25.78
8705;BME280;4389;41.932;25.904;2023-07-29T12:04:38;-16947.22;;;33.15;26.55
8705;BME280;4389;41.932;25.904;2023-07-29T12:07:05;-16950.09;;;33.26;26.29
8705;BME280;4389;41.932;25.904;2023-07-29T12:09:34;-16944.06;;;33.03;25.87
8705;BME280;4389;41.932;25.904;2023-07-29T12:12:02;-16951.03;;;33.30;25.20
8705;BME280;4389;41.932;25.904;2023-07-29T12:14:29;-16951.16;;;33.30;26.07
8705;BME280;4389;41.932;25.904;2023-07-29T12:16:59;-16951.94;;;33.33;25.10
8705;BME280;4389;41.932;25.904;2023-07-29T12:19:32;-16954.94;;;33.45;26.32
8705;BME280;4389;41.932;25.904;2023-07-29T12:21:59;-16954.56;;;33.43;26.00
8705;BME280;4389;41.932;25.904;2023-07-29T12:24:26;-16949.59;;;33.24;26.02
8705;BME280;4389;41.932;25.904;2023-07-29T12:26:55;-16949.84;;;33.25;26.29
8705;BME280;4389;41.932;25.904;2023-07-29T12:29:22;-16948.28;;;33.19;26.38
8705;BME280;4389;41.932;25.904;2023-07-29T12:31:57;-16956.13;;;33.49;25.84
8705;BME280;4389;41.932;25.904;2023-07-29T12:34:25;-16956.91;;;33.52;25.13
8705;BME280;4389;41.932;25.904;2023-07-29T12:36:52;-16953.66;;;33.40;25.96
8705;BME280;4389;41.932;25.904;2023-07-29T12:39:21;-16955.59;;;33.47;24.77
8705;BME280;4389;41.932;25.904;2023-07-29T12:41:50;-16958.50;;;33.58;25.41
8705;BME280;4389;41.932;25.904;2023-07-29T12:44:18;-16959.81;;;33.63;25.19
8705;BME280;4389;41.932;25.904;2023-07-29T12:46:45;-16955.34;;;33.46;25.33
8705;BME280;4389;41.932;25.904;2023-07-29T12:49:12;-16951.94;;;33.33;25.00
8705;BME280;4389;41.932;25.904;2023-07-29T12:51:39;-16953.91;;;33.41;24.67
8705;BME280;4389;41.932;25.904;2023-07-29T12:54:06;-16948.78;;;33.21;24.67
8705;BME280;4389;41.932;25.904;2023-07-29T12:56:33;-16954.28;;;33.42;25.44
8705;BME280;4389;41.932;25.904;2023-07-29T12:59:00;-16960.19;;;33.65;25.75
8705;BME280;4389;41.932;25.904;2023-07-29T13:01:29;-16963.47;;;33.77;24.84
8705;BME280;4389;41.932;25.904;2023-07-29T13:03:55;-16966.88;;;33.90;24.81